createdAt,value
2022-12-23T00:01:22.681Z,20.05
2022-12-23T00:03:49.270Z,18.83
2022-12-23T00:06:17.536Z,20.25
2022-12-23T00:08:44.616Z,19.17
2022-12-23T00:11:15.501Z,17.50
2022-12-23T00:14:00.821Z,18.23
2022-12-23T00:16:27.518Z,18.48
2022-12-23T00:18:55.154Z,17.63
2022-12-23T00:21:22.638Z,16.73
2022-12-23T00:23:51.090Z,18.38
2022-12-23T00:26:23.751Z,19.98
2022-12-23T00:28:51.053Z,19.23
2022-12-23T00:31:19.080Z,16.08
2022-12-23T00:33:48.340Z,16.95
2022-12-23T00:36:22.600Z,16.08
2022-12-23T00:39:08.368Z,16.45
2022-12-23T00:41:54.243Z,15.52
2022-12-23T00:44:21.128Z,15.43
2022-12-23T00:46:47.880Z,15.73
2022-12-23T00:49:34.989Z,15.40
2022-12-23T00:52:02.188Z,14.70
2022-12-23T00:56:55.334Z,15.27
2022-12-23T00:59:21.853Z,15.48
2022-12-23T01:02:07.119Z,18.00
2022-12-23T01:04:52.774Z,18.63
2022-12-23T01:07:19.370Z,18.92
2022-12-23T01:09:46.115Z,18.55
2022-12-23T01:12:14.008Z,16.38
2022-12-23T01:14:40.705Z,15.25
2022-12-23T01:17:08.017Z,15.77
2022-12-23T01:19:34.677Z,15.82
2022-12-23T01:22:01.188Z,12.20
2022-12-23T01:24:32.595Z,17.08
2022-12-23T01:26:59.636Z,17.05
2022-12-23T01:29:26.510Z,18.80
2022-12-23T01:31:53.195Z,18.65
2022-12-23T01:34:19.856Z,20.15
2022-12-23T01:36:46.361Z,19.13
2022-12-23T01:39:13.018Z,14.57
2022-12-23T01:41:58.045Z,11.02
2022-12-23T01:44:55.568Z,13.55
2022-12-23T01:47:30.874Z,13.25
2022-12-23T01:50:10.122Z,13.93
2022-12-23T01:52:44.857Z,14.02
2022-12-23T01:55:12.944Z,13.10
2022-12-23T01:57:43.055Z,13.65
2022-12-23T02:00:28.989Z,13.50
2022-12-23T02:03:14.209Z,14.40
2022-12-23T02:05:44.757Z,14.73
2022-12-23T02:08:31.307Z,18.15
2022-12-23T02:11:15.864Z,25.77
2022-12-23T02:14:18.520Z,24.13
2022-12-23T02:16:54.543Z,24.15
2022-12-23T02:19:57.020Z,23.37
2022-12-23T02:22:53.438Z,24.25
2022-12-23T02:25:47.608Z,23.35
2022-12-23T02:28:47.020Z,24.45
2022-12-23T02:31:13.538Z,23.63
2022-12-23T02:34:00.303Z,23.42
2022-12-23T02:39:19.072Z,18.40
2022-12-23T02:42:02.372Z,17.65
2022-12-23T02:44:51.888Z,17.80
2022-12-23T02:47:36.404Z,17.77
2022-12-23T02:50:11.082Z,17.15
2022-12-23T02:52:41.334Z,17.33
2022-12-23T02:55:17.621Z,17.85
2022-12-23T02:57:48.376Z,18.73
2022-12-23T03:00:15.483Z,18.95
2022-12-23T03:05:39.201Z,20.90
2022-12-23T03:10:43.466Z,15.38
2022-12-23T03:13:22.465Z,16.05
2022-12-23T03:16:03.884Z,15.32
2022-12-23T03:18:59.531Z,17.17
2022-12-23T03:21:41.876Z,14.13
2022-12-23T03:24:30.275Z,15.88
2022-12-23T03:27:17.344Z,16.05
2022-12-23T03:30:14.676Z,15.82
2022-12-23T03:32:49.420Z,15.75
2022-12-23T03:35:20.045Z,15.70
2022-12-23T03:37:50.623Z,16.65
2022-12-23T03:40:22.671Z,15.65
2022-12-23T03:42:56.061Z,16.83
2022-12-23T03:45:39.701Z,16.20
2022-12-23T03:48:15.544Z,17.67
2022-12-23T03:50:43.215Z,30.70
2022-12-23T03:53:16.630Z,24.75
2022-12-23T03:55:48.520Z,28.17
2022-12-23T03:58:24.573Z,27.73
2022-12-23T04:01:00.623Z,28.90
2022-12-23T04:04:02.432Z,29.07
2022-12-23T04:06:36.065Z,28.00
2022-12-23T04:09:04.781Z,27.77
2022-12-23T04:11:33.402Z,23.60
2022-12-23T04:13:59.942Z,22.23
2022-12-23T04:16:27.335Z,22.75
2022-12-23T04:18:53.900Z,24.42
2022-12-23T04:21:20.582Z,17.95
2022-12-23T04:23:47.129Z,23.90
2022-12-23T04:26:13.949Z,25.48
2022-12-23T04:28:40.508Z,29.70
2022-12-23T04:31:07.075Z,31.30
2022-12-23T04:33:33.637Z,35.97
2022-12-23T04:36:01.018Z,39.50
2022-12-23T04:38:27.698Z,32.78
2022-12-23T04:40:54.253Z,30.83
2022-12-23T04:43:20.820Z,31.40
2022-12-23T04:45:51.337Z,30.38
2022-12-23T04:48:18.423Z,29.65
2022-12-23T04:50:44.987Z,29.25
2022-12-23T04:53:11.579Z,23.90
2022-12-23T04:55:38.125Z,31.35
2022-12-23T04:58:04.689Z,28.45
2022-12-23T05:00:37.175Z,21.00
2022-12-23T05:03:06.266Z,26.65
2022-12-23T05:05:32.868Z,27.50
2022-12-23T05:08:04.380Z,29.27
2022-12-23T05:10:31.869Z,29.70
2022-12-23T05:12:58.527Z,32.90
2022-12-23T05:15:25.117Z,32.85
2022-12-23T05:17:51.679Z,32.75
2022-12-23T05:20:18.183Z,30.08
2022-12-23T05:22:44.800Z,26.60
2022-12-23T05:25:11.333Z,19.55
2022-12-23T05:27:37.939Z,29.20
2022-12-23T05:30:05.026Z,27.83
2022-12-23T05:32:31.676Z,26.65
2022-12-23T05:34:58.277Z,43.90
2022-12-23T05:37:24.817Z,53.78
2022-12-23T05:39:51.402Z,52.95
2022-12-23T05:42:19.528Z,48.30
2022-12-23T05:44:46.121Z,47.05
2022-12-23T05:47:12.758Z,52.53
2022-12-23T05:49:39.266Z,41.17
2022-12-23T05:52:05.845Z,36.90
2022-12-23T05:54:32.570Z,35.10
2022-12-23T05:56:59.172Z,32.50
2022-12-23T05:59:30.703Z,32.90
2022-12-23T06:01:58.117Z,31.67
2022-12-23T06:04:24.831Z,32.70
2022-12-23T06:06:51.445Z,31.67
2022-12-23T06:09:18.007Z,33.28
2022-12-23T06:11:44.566Z,32.50
2022-12-23T06:14:11.220Z,26.33
2022-12-23T06:16:37.859Z,33.33
2022-12-23T06:19:04.497Z,25.45
2022-12-23T06:21:32.022Z,38.22
2022-12-23T06:23:58.639Z,38.38
2022-12-23T06:26:25.923Z,35.22
2022-12-23T06:28:52.515Z,35.33
2022-12-23T06:31:19.176Z,26.75
2022-12-23T06:33:45.881Z,31.15
2022-12-23T06:36:12.451Z,49.00
2022-12-23T06:38:39.011Z,47.30
2022-12-23T06:41:05.554Z,41.40
2022-12-23T06:43:32.144Z,33.35
2022-12-23T06:45:58.697Z,42.15
2022-12-23T06:48:25.303Z,48.83
2022-12-23T06:50:52.075Z,50.97
2022-12-23T06:53:18.882Z,56.45
2022-12-23T06:55:45.414Z,57.72
2022-12-23T06:58:11.948Z,51.80
2022-12-23T07:00:38.730Z,32.20
2022-12-23T07:03:05.487Z,42.28
2022-12-23T07:05:37.003Z,45.67
2022-12-23T07:08:04.586Z,52.03
2022-12-23T07:10:31.126Z,44.55
2022-12-23T07:12:57.673Z,25.13
2022-12-23T07:15:24.225Z,26.00
2022-12-23T07:17:50.711Z,31.92
2022-12-23T07:20:17.375Z,29.90
2022-12-23T07:22:43.972Z,31.83
2022-12-23T07:25:10.524Z,31.45
2022-12-23T07:27:37.075Z,31.42
2022-12-23T07:30:04.042Z,30.52
2022-12-23T07:32:30.561Z,31.15
2022-12-23T07:34:57.102Z,33.17
2022-12-23T07:37:23.608Z,33.47
2022-12-23T07:39:50.168Z,26.23
2022-12-23T07:42:43.422Z,32.65
2022-12-23T07:45:04.624Z,31.90
2022-12-23T07:47:31.348Z,34.58
2022-12-23T07:49:57.880Z,34.08
2022-12-23T07:52:24.462Z,35.58
2022-12-23T07:54:50.972Z,37.88
2022-12-23T07:57:17.517Z,34.95
2022-12-23T07:59:44.065Z,38.58
2022-12-23T08:02:11.486Z,30.77
2022-12-23T08:04:44.135Z,47.13
2022-12-23T08:07:12.473Z,37.83
2022-12-23T08:09:39.065Z,32.67
2022-12-23T08:12:05.910Z,22.15
2022-12-23T08:14:32.468Z,27.52
2022-12-23T08:16:59.163Z,29.73
2022-12-23T08:19:25.715Z,29.17
2022-12-23T08:21:52.566Z,23.33
2022-12-23T08:24:19.130Z,29.42
2022-12-23T08:26:45.678Z,28.75
2022-12-23T08:29:12.344Z,28.88
2022-12-23T08:31:38.928Z,35.40
2022-12-23T08:34:05.485Z,35.47
2022-12-23T08:36:34.269Z,34.75
2022-12-23T08:39:04.563Z,35.45
2022-12-23T08:41:34.312Z,34.53
2022-12-23T08:44:01.077Z,35.10
2022-12-23T08:46:28.632Z,34.40
2022-12-23T08:48:55.539Z,31.67
2022-12-23T08:51:24.341Z,31.92
2022-12-23T08:53:59.574Z,33.95
2022-12-23T08:56:30.400Z,35.35
2022-12-23T08:58:57.655Z,33.70
2022-12-23T09:01:27.798Z,34.92
2022-12-23T09:03:54.638Z,33.97
2022-12-23T09:06:29.015Z,32.20
2022-12-23T09:08:57.116Z,31.75
2022-12-23T09:11:26.456Z,33.65
2022-12-23T09:13:53.477Z,32.45
2022-12-23T09:16:20.674Z,31.08
2022-12-23T09:18:47.250Z,34.42
2022-12-23T09:21:16.592Z,40.90
2022-12-23T09:23:43.242Z,40.15
2022-12-23T09:26:10.684Z,30.70
2022-12-23T09:28:37.724Z,29.65
2022-12-23T09:31:12.744Z,29.42
2022-12-23T09:33:39.923Z,32.75
2022-12-23T09:36:06.822Z,26.05
2022-12-23T09:38:33.845Z,25.73
2022-12-23T09:41:21.800Z,23.38
2022-12-23T09:44:09.760Z,19.83
2022-12-23T09:46:43.013Z,18.00
2022-12-23T09:49:13.427Z,20.50
2022-12-23T09:51:40.034Z,16.65
2022-12-23T09:54:22.654Z,16.45
2022-12-23T09:57:00.568Z,16.75
2022-12-23T10:00:01.064Z,19.92
2022-12-23T10:02:30.368Z,27.02
2022-12-23T10:05:15.594Z,22.27
2022-12-23T10:07:48.617Z,17.92
2022-12-23T10:10:25.746Z,19.38
2022-12-23T10:15:26.063Z,20.70
2022-12-23T10:17:55.630Z,16.70
2022-12-23T10:20:43.007Z,17.75
2022-12-23T10:23:31.457Z,19.60
2022-12-23T10:25:58.253Z,20.08
2022-12-23T10:28:29.765Z,18.55
2022-12-23T10:31:38.827Z,18.98
2022-12-23T10:34:11.743Z,17.33
2022-12-23T10:36:54.488Z,17.08
2022-12-23T10:39:32.394Z,15.43
2022-12-23T10:42:05.911Z,15.60
2022-12-23T10:44:47.513Z,15.43
2022-12-23T10:47:41.827Z,15.00
2022-12-23T10:50:48.498Z,15.00
2022-12-23T10:53:27.025Z,16.23
2022-12-23T10:55:54.246Z,16.83
2022-12-23T10:58:21.717Z,18.02
2022-12-23T11:03:24.208Z,18.98
2022-12-23T11:05:52.806Z,20.63
2022-12-23T11:08:21.938Z,20.17
2022-12-23T11:10:49.263Z,20.02
2022-12-23T11:15:50.112Z,19.50
2022-12-23T11:18:19.801Z,19.13
2022-12-23T11:21:05.839Z,20.65
2022-12-23T11:23:36.789Z,21.37
2022-12-23T11:26:13.304Z,28.90
2022-12-23T11:28:48.889Z,23.73
2022-12-23T11:31:17.067Z,28.50
2022-12-23T11:33:55.781Z,27.25
2022-12-23T11:36:25.259Z,24.77
2022-12-23T11:39:14.639Z,23.52
2022-12-23T11:41:49.762Z,33.15
2022-12-23T11:44:24.884Z,36.75
2022-12-23T11:46:51.961Z,30.20
2022-12-23T11:49:27.416Z,23.52
2022-12-23T11:52:06.202Z,17.75
2022-12-23T11:54:33.845Z,16.35
2022-12-23T11:57:04.096Z,15.77
2022-12-23T11:59:41.126Z,15.60
2022-12-23T12:02:15.505Z,15.23
2022-12-23T12:04:42.837Z,16.20
2022-12-23T12:07:14.449Z,18.92
2022-12-23T12:09:43.697Z,18.60
2022-12-23T12:12:19.484Z,18.92
2022-12-23T12:14:52.650Z,18.20
2022-12-23T12:17:42.446Z,17.38
2022-12-23T12:20:20.825Z,21.98
2022-12-23T12:22:59.170Z,22.17
2022-12-23T12:25:47.654Z,18.10
2022-12-23T12:28:21.003Z,19.10
2022-12-23T12:30:55.800Z,19.70
2022-12-23T12:33:30.297Z,22.55
2022-12-23T12:36:34.030Z,21.10
2022-12-23T12:39:00.733Z,19.15
2022-12-23T12:41:43.119Z,19.23
2022-12-23T12:44:28.397Z,21.70
2022-12-23T12:47:10.998Z,22.02
2022-12-23T12:50:02.246Z,20.38
2022-12-23T12:52:36.779Z,24.35
2022-12-23T12:55:17.297Z,25.80
2022-12-23T12:57:43.883Z,35.38
2022-12-23T13:00:22.566Z,31.02
2022-12-23T13:03:21.450Z,28.48
2022-12-23T13:06:06.769Z,28.40
2022-12-23T13:08:56.711Z,26.35
2022-12-23T13:11:44.108Z,28.13
2022-12-23T13:14:38.168Z,37.55
2022-12-23T13:17:19.235Z,63.63
2022-12-23T13:19:54.681Z,68.25
2022-12-23T13:22:23.998Z,54.33
2022-12-23T13:25:05.645Z,69.45
2022-12-23T13:27:38.806Z,72.00
2022-12-23T13:30:14.456Z,67.15
2022-12-23T13:32:51.520Z,53.67
2022-12-23T13:35:37.630Z,32.22
2022-12-23T13:38:04.466Z,31.90
2022-12-23T13:40:49.531Z,38.03
2022-12-23T13:43:20.475Z,39.78
2022-12-23T13:45:48.220Z,41.03
2022-12-23T13:48:39.442Z,42.20
2022-12-23T13:51:11.975Z,58.83
2022-12-23T13:53:53.583Z,49.90
2022-12-23T13:56:27.154Z,48.63
2022-12-23T13:58:54.265Z,48.45
2022-12-23T14:01:42.989Z,45.85
2022-12-23T14:04:37.419Z,47.45
2022-12-23T14:07:32.060Z,70.80
2022-12-23T14:10:10.360Z,64.25
2022-12-23T14:12:40.878Z,84.80
2022-12-23T14:15:32.367Z,71.75
2022-12-23T14:18:07.894Z,68.90
2022-12-23T14:20:49.533Z,67.78
2022-12-23T14:23:51.651Z,72.43
2022-12-23T14:26:33.681Z,70.28
2022-12-23T14:29:37.510Z,65.70
2022-12-23T14:32:04.309Z,58.78
2022-12-23T14:34:33.314Z,61.25
2022-12-23T14:37:21.143Z,63.22
2022-12-23T14:39:49.342Z,65.68
2022-12-23T14:42:35.220Z,65.63
2022-12-23T14:45:24.488Z,61.95
2022-12-23T14:47:51.100Z,53.10
2022-12-23T14:50:32.675Z,56.35
2022-12-23T14:53:18.424Z,51.40
2022-12-23T14:55:46.113Z,47.97
2022-12-23T14:58:30.828Z,47.03
2022-12-23T15:01:12.542Z,49.67
2022-12-23T15:04:01.554Z,49.35
2022-12-23T15:06:31.457Z,39.30
2022-12-23T15:08:58.764Z,48.90
2022-12-23T15:13:59.914Z,42.80
2022-12-23T15:16:39.695Z,39.15
2022-12-23T15:19:19.397Z,40.67
2022-12-23T15:21:50.356Z,41.47
2022-12-23T15:24:22.515Z,35.63
2022-12-23T15:27:17.825Z,38.22
2022-12-23T15:29:43.779Z,33.03
2022-12-23T15:32:11.940Z,31.50
2022-12-23T15:34:38.644Z,27.38
2022-12-23T15:37:11.343Z,34.92
2022-12-23T15:39:43.817Z,29.50
2022-12-23T15:42:22.272Z,25.00
2022-12-23T15:44:48.975Z,21.17
2022-12-23T15:47:30.141Z,18.13
2022-12-23T15:49:59.456Z,31.60
2022-12-23T15:52:29.382Z,32.90
2022-12-23T15:55:10.124Z,25.40
2022-12-23T15:57:49.566Z,29.23
2022-12-23T16:00:23.154Z,19.85
2022-12-23T16:03:01.520Z,20.20
2022-12-23T16:05:32.978Z,21.23
2022-12-23T16:08:28.622Z,22.75
2022-12-23T16:11:07.076Z,25.30
2022-12-23T16:13:34.004Z,22.65
2022-12-23T16:16:18.901Z,23.38
2022-12-23T16:18:47.759Z,44.30
2022-12-23T16:21:15.279Z,44.65
2022-12-23T16:23:53.093Z,37.13
2022-12-23T16:26:20.948Z,39.92
2022-12-23T16:28:51.521Z,43.22
2022-12-23T16:31:20.279Z,43.22
2022-12-23T16:33:58.163Z,49.38
2022-12-23T16:36:27.577Z,54.15
2022-12-23T16:39:05.385Z,77.78
2022-12-23T16:41:32.093Z,71.95
2022-12-23T16:43:59.358Z,71.97
2022-12-23T16:51:23.554Z,66.68
2022-12-23T16:53:51.795Z,61.08
2022-12-23T16:56:20.975Z,58.72
2022-12-23T16:58:48.318Z,53.50
2022-12-23T17:03:49.081Z,46.40
2022-12-23T17:06:17.389Z,45.65
2022-12-23T17:08:44.117Z,55.65
2022-12-23T17:11:40.249Z,65.88
2022-12-23T17:14:13.592Z,63.95
2022-12-23T17:16:42.481Z,62.10
2022-12-23T17:19:09.114Z,68.45
2022-12-23T17:21:37.296Z,64.00
2022-12-23T17:24:19.720Z,87.78
2022-12-23T17:26:46.323Z,80.40
2022-12-23T17:29:13.238Z,44.28
2022-12-23T17:31:42.665Z,53.97
2022-12-23T17:34:18.668Z,45.42
2022-12-23T17:36:49.976Z,80.97
2022-12-23T17:39:17.293Z,76.32
2022-12-23T17:41:44.083Z,87.05
2022-12-23T17:44:14.316Z,58.80
2022-12-23T17:46:41.794Z,39.28
2022-12-23T17:49:08.936Z,57.20
2022-12-23T17:51:35.829Z,45.70
2022-12-23T17:54:04.594Z,67.30
2022-12-23T17:56:31.386Z,76.28
2022-12-23T17:58:58.121Z,86.68
2022-12-23T18:01:30.100Z,90.70
2022-12-23T18:03:58.599Z,92.47
2022-12-23T18:06:27.702Z,74.50
2022-12-23T18:08:55.318Z,61.47
2022-12-23T18:11:30.181Z,78.63
2022-12-23T18:13:57.021Z,65.55
2022-12-23T18:16:23.647Z,70.57
2022-12-23T18:18:50.379Z,60.92
2022-12-23T18:21:26.457Z,53.83
2022-12-23T18:23:55.124Z,35.10
2022-12-23T18:26:21.873Z,49.40
2022-12-23T18:28:48.497Z,48.72
2022-12-23T18:31:20.147Z,53.67
2022-12-23T18:33:46.982Z,58.00
2022-12-23T18:36:25.214Z,60.58
2022-12-23T18:38:52.698Z,52.17
2022-12-23T18:41:20.352Z,49.15
2022-12-23T18:43:47.246Z,51.58
2022-12-23T18:46:13.840Z,48.47
2022-12-23T18:48:40.569Z,46.13
2022-12-23T18:51:07.461Z,44.17
2022-12-23T18:53:34.040Z,49.53
2022-12-23T18:56:00.654Z,50.38
2022-12-23T18:58:27.232Z,51.55
2022-12-23T19:00:54.332Z,49.08
2022-12-23T19:03:21.009Z,48.42
2022-12-23T19:05:48.974Z,41.92
2022-12-23T19:08:21.860Z,39.00
2022-12-23T19:10:52.596Z,37.45
2022-12-23T19:13:19.528Z,36.63
2022-12-23T19:15:46.763Z,37.17
2022-12-23T19:20:43.123Z,33.97
2022-12-23T19:23:11.088Z,36.30
2022-12-23T19:25:40.761Z,38.72
2022-12-23T19:28:07.445Z,40.78
2022-12-23T19:30:34.653Z,41.20
2022-12-23T19:35:28.247Z,38.47
2022-12-23T19:37:54.876Z,37.80
2022-12-23T19:40:21.508Z,44.90
2022-12-23T19:42:48.284Z,50.50
2022-12-23T19:45:14.870Z,46.35
2022-12-23T19:47:41.457Z,37.80
2022-12-23T19:50:08.795Z,41.58
2022-12-23T19:55:01.954Z,35.22
2022-12-23T19:57:28.813Z,42.55
2022-12-23T19:59:55.467Z,34.72
2022-12-23T20:02:23.484Z,32.97
2022-12-23T20:04:50.139Z,35.03
2022-12-23T20:07:16.909Z,23.25
2022-12-23T20:09:43.531Z,30.42
2022-12-23T20:12:10.662Z,30.15
2022-12-23T20:14:37.481Z,33.55
2022-12-23T20:17:04.175Z,46.13
2022-12-23T20:19:30.931Z,53.00
2022-12-23T20:21:57.587Z,40.03
2022-12-23T20:24:25.637Z,44.25
2022-12-23T20:26:52.253Z,45.22
2022-12-23T20:29:19.217Z,33.75
2022-12-23T20:31:45.902Z,46.13
2022-12-23T20:34:15.684Z,50.58
2022-12-23T20:36:42.515Z,52.03
2022-12-23T20:39:09.289Z,49.85
2022-12-23T20:41:35.937Z,46.40
2022-12-23T20:44:33.323Z,43.33
2022-12-23T20:46:49.233Z,43.03
2022-12-23T20:49:15.905Z,41.25
2022-12-23T20:51:42.601Z,30.95
2022-12-23T20:54:09.386Z,31.73
2022-12-23T20:56:36.030Z,32.03
2022-12-23T20:59:04.005Z,28.73
2022-12-23T21:01:31.973Z,30.08
2022-12-23T21:04:01.171Z,31.13
2022-12-23T21:06:29.241Z,33.75
2022-12-23T21:08:58.242Z,51.55
2022-12-23T21:11:27.562Z,57.08
2022-12-23T21:13:54.131Z,38.22
2022-12-23T21:16:21.030Z,33.80
2022-12-23T21:18:52.650Z,31.33
2022-12-23T21:21:23.519Z,27.55
2022-12-23T21:23:50.560Z,25.10
2022-12-23T21:26:22.976Z,25.48
2022-12-23T21:28:52.269Z,26.90
2022-12-23T21:31:23.477Z,27.45
2022-12-23T21:33:52.094Z,26.80
2022-12-23T21:36:22.142Z,29.13
2022-12-23T21:38:50.148Z,28.08
2022-12-23T21:41:20.233Z,27.58
2022-12-23T21:43:47.285Z,26.35
2022-12-23T21:46:16.326Z,26.00
2022-12-23T21:48:43.496Z,24.17
2022-12-23T21:51:14.401Z,25.58
2022-12-23T21:53:42.663Z,25.13
2022-12-23T21:56:14.199Z,25.90
2022-12-23T21:58:41.578Z,26.63
2022-12-23T22:01:10.330Z,28.13
2022-12-23T22:03:37.598Z,27.77
2022-12-23T22:08:38.923Z,32.63
2022-12-23T22:11:10.727Z,29.25
2022-12-23T22:13:38.088Z,29.65
2022-12-23T22:16:08.941Z,27.83
2022-12-23T22:18:36.885Z,25.45
2022-12-23T22:21:16.329Z,23.90
2022-12-23T22:23:43.909Z,24.10
2022-12-23T22:26:13.530Z,23.52
2022-12-23T22:28:42.289Z,23.52
2022-12-23T22:31:17.823Z,24.38
2022-12-23T22:33:44.880Z,24.63
2022-12-23T22:36:13.030Z,25.48
2022-12-23T22:38:40.063Z,25.25
2022-12-23T22:41:06.838Z,29.35
2022-12-23T22:43:33.699Z,42.28
2022-12-23T22:46:01.955Z,47.88
2022-12-23T22:48:30.326Z,48.97
2022-12-23T22:51:14.281Z,46.38
2022-12-23T22:53:41.020Z,42.92
2022-12-23T22:56:08.495Z,43.67
2022-12-23T22:58:35.279Z,42.13
2022-12-23T23:01:02.106Z,40.60
2022-12-23T23:03:29.151Z,34.85
2022-12-23T23:06:07.273Z,34.75
2022-12-23T23:08:34.864Z,39.13
2022-12-23T23:11:03.823Z,39.25
2022-12-23T23:13:33.604Z,40.28
2022-12-23T23:16:00.496Z,31.38
2022-12-23T23:18:28.025Z,27.48
2022-12-23T23:20:54.717Z,31.52
2022-12-23T23:23:21.715Z,29.55
2022-12-23T23:25:48.286Z,26.50
2022-12-23T23:28:14.966Z,18.15
2022-12-23T23:30:41.596Z,33.83
2022-12-23T23:33:08.929Z,36.55
2022-12-23T23:38:02.421Z,35.30
2022-12-23T23:40:28.999Z,36.25
2022-12-23T23:42:55.598Z,25.30
2022-12-23T23:45:22.194Z,30.20
2022-12-23T23:47:48.806Z,25.02
2022-12-23T23:50:15.337Z,25.50
2022-12-23T23:52:41.934Z,31.73
2022-12-23T23:55:09.013Z,30.23
2022-12-23T23:57:35.619Z,31.33
